createdAt,value
2018-07-30T00:01:08.032Z,17.90
2018-07-30T00:03:36.851Z,17.80
2018-07-30T00:06:05.047Z,17.70
2018-07-30T00:11:01.299Z,17.70
2018-07-30T00:13:29.494Z,17.60
2018-07-30T00:15:57.708Z,17.60
2018-07-30T00:18:25.899Z,17.60
2018-07-30T00:20:54.087Z,17.60
2018-07-30T00:23:22.271Z,17.60
2018-07-30T00:25:50.514Z,17.50
2018-07-30T00:28:18.715Z,17.50
2018-07-30T00:30:46.903Z,17.50
2018-07-30T00:33:15.073Z,17.40
2018-07-30T00:35:43.259Z,17.40
2018-07-30T00:38:11.475Z,17.40
2018-07-30T00:43:07.608Z,17.30
2018-07-30T00:45:35.804Z,17.30
2018-07-30T00:48:03.988Z,17.30
2018-07-30T00:50:32.218Z,17.30
2018-07-30T00:53:00.392Z,17.20
2018-07-30T00:55:28.595Z,17.20
2018-07-30T00:57:56.777Z,17.20
2018-07-30T01:00:24.980Z,17.20
2018-07-30T01:02:53.167Z,17.20
2018-07-30T01:05:21.367Z,17.10
2018-07-30T01:07:49.551Z,17.10
2018-07-30T01:10:17.760Z,17.10
2018-07-30T01:12:45.975Z,17.10
2018-07-30T01:15:14.184Z,17.00
2018-07-30T01:17:42.371Z,17.00
2018-07-30T01:20:10.555Z,16.90
2018-07-30T01:22:38.866Z,17.00
2018-07-30T01:25:07.075Z,16.90
2018-07-30T01:27:35.316Z,16.90
2018-07-30T01:30:03.563Z,16.80
2018-07-30T01:32:31.759Z,16.80
2018-07-30T01:34:59.983Z,16.80
2018-07-30T01:37:28.174Z,16.70
2018-07-30T01:39:56.352Z,16.70
2018-07-30T01:42:24.545Z,16.70
2018-07-30T01:44:53.619Z,16.60
2018-07-30T01:47:21.791Z,16.60
2018-07-30T01:49:49.996Z,16.60
2018-07-30T01:52:18.177Z,16.60
2018-07-30T01:54:46.366Z,16.50
2018-07-30T01:57:14.551Z,16.50
2018-07-30T01:59:42.787Z,16.50
2018-07-30T02:02:10.976Z,16.50
2018-07-30T02:04:39.160Z,16.40
2018-07-30T02:07:07.403Z,16.40
2018-07-30T02:09:35.618Z,16.40
2018-07-30T02:16:59.715Z,16.30
2018-07-30T02:19:27.884Z,16.20
2018-07-30T02:21:56.180Z,16.20
2018-07-30T02:24:24.347Z,16.20
2018-07-30T02:26:52.579Z,16.20
2018-07-30T02:29:20.767Z,16.20
2018-07-30T02:31:48.963Z,16.20
2018-07-30T02:34:17.155Z,16.10
2018-07-30T02:36:45.343Z,16.10
2018-07-30T02:39:14.307Z,16.10
2018-07-30T02:41:42.923Z,16.10
2018-07-30T02:44:11.148Z,16.00
2018-07-30T02:46:39.708Z,16.00
2018-07-30T02:49:08.411Z,16.00
2018-07-30T02:51:36.616Z,16.00
2018-07-30T02:54:04.808Z,16.00
2018-07-30T02:56:33.011Z,16.00
2018-07-30T02:59:01.212Z,15.90
2018-07-30T03:01:29.512Z,15.90
2018-07-30T03:03:57.699Z,15.90
2018-07-30T03:06:25.924Z,15.90
2018-07-30T03:08:54.106Z,15.90
2018-07-30T03:13:50.503Z,15.90
2018-07-30T03:16:18.692Z,15.90
2018-07-30T03:18:46.893Z,15.80
2018-07-30T03:21:15.092Z,15.80
2018-07-30T03:23:43.287Z,15.80
2018-07-30T03:26:11.545Z,15.80
2018-07-30T03:28:39.775Z,15.80
2018-07-30T03:31:07.959Z,15.80
2018-07-30T03:33:36.409Z,15.80
2018-07-30T03:36:04.867Z,15.80
2018-07-30T03:38:33.059Z,15.70
2018-07-30T03:41:01.291Z,15.70
2018-07-30T03:43:29.503Z,15.70
2018-07-30T03:45:57.680Z,15.70
2018-07-30T03:48:25.999Z,15.70
2018-07-30T03:50:54.292Z,15.70
2018-07-30T03:53:22.467Z,15.70
2018-07-30T03:55:50.667Z,15.70
2018-07-30T03:58:18.851Z,15.70
2018-07-30T04:00:47.042Z,15.70
2018-07-30T04:03:15.223Z,15.70
2018-07-30T04:05:43.473Z,15.70
2018-07-30T04:08:11.625Z,15.80
2018-07-30T04:10:40.551Z,15.80
2018-07-30T04:13:08.759Z,15.90
2018-07-30T04:15:36.975Z,15.90
2018-07-30T04:18:05.251Z,15.90
2018-07-30T04:20:33.455Z,15.90
2018-07-30T04:23:01.720Z,16.00
2018-07-30T04:25:29.907Z,16.00
2018-07-30T04:27:58.107Z,16.10
2018-07-30T04:30:26.336Z,16.10
2018-07-30T04:32:54.520Z,16.20
2018-07-30T04:35:22.723Z,16.20
2018-07-30T04:37:50.911Z,16.20
2018-07-30T04:40:19.695Z,16.30
2018-07-30T04:42:47.925Z,16.30
2018-07-30T04:45:16.131Z,16.40
2018-07-30T04:47:44.348Z,16.40
2018-07-30T04:50:12.585Z,16.50
2018-07-30T04:52:40.743Z,16.50
2018-07-30T04:55:09.043Z,16.60
2018-07-30T04:57:37.259Z,16.70
2018-07-30T05:00:05.991Z,16.70
2018-07-30T05:02:34.217Z,16.70
2018-07-30T05:05:02.438Z,16.80
2018-07-30T05:07:30.619Z,16.80
2018-07-30T05:09:58.807Z,16.90
2018-07-30T05:12:27.004Z,17.00
2018-07-30T05:14:55.240Z,17.00
2018-07-30T05:17:23.515Z,17.10
2018-07-30T05:19:51.723Z,17.20
2018-07-30T05:22:19.919Z,17.30
2018-07-30T05:24:48.123Z,17.40
2018-07-30T05:27:16.776Z,17.40
2018-07-30T05:29:45.120Z,17.60
2018-07-30T05:32:13.404Z,17.70
2018-07-30T05:34:41.595Z,17.80
2018-07-30T05:37:09.856Z,17.90
2018-07-30T05:39:38.038Z,18.10
2018-07-30T05:42:06.368Z,18.20
2018-07-30T05:44:34.547Z,18.30
2018-07-30T05:47:02.763Z,18.40
2018-07-30T05:51:58.921Z,18.60
2018-07-30T05:54:27.143Z,18.80
2018-07-30T05:56:55.327Z,18.80
2018-07-30T05:59:23.535Z,18.90
2018-07-30T06:01:51.741Z,18.90
2018-07-30T06:04:19.936Z,19.00
2018-07-30T06:06:48.114Z,19.00
2018-07-30T06:09:16.375Z,19.10
2018-07-30T06:11:44.561Z,19.10
2018-07-30T06:14:12.757Z,19.20
2018-07-30T06:16:40.931Z,19.20
2018-07-30T06:19:09.132Z,19.30
2018-07-30T06:21:37.340Z,19.30
2018-07-30T06:24:05.744Z,19.40
2018-07-30T06:26:34.020Z,19.50
2018-07-30T06:29:02.205Z,19.60
2018-07-30T06:31:30.428Z,19.70
2018-07-30T06:33:58.623Z,19.70
2018-07-30T06:36:26.803Z,19.80
2018-07-30T06:38:55.000Z,19.90
2018-07-30T06:41:23.206Z,20.00
2018-07-30T06:43:51.397Z,20.10
2018-07-30T06:46:19.591Z,20.20
2018-07-30T06:48:47.795Z,20.40
2018-07-30T06:51:15.979Z,20.60
2018-07-30T06:53:44.163Z,20.90
2018-07-30T06:56:12.396Z,21.00
2018-07-30T06:58:41.591Z,21.20
2018-07-30T07:03:37.804Z,21.40
2018-07-30T07:06:05.991Z,21.50
2018-07-30T07:08:34.204Z,21.70
2018-07-30T07:11:02.399Z,21.80
2018-07-30T07:13:30.577Z,21.90
2018-07-30T07:15:58.775Z,22.00
2018-07-30T07:18:26.967Z,22.20
2018-07-30T07:20:55.192Z,22.40
2018-07-30T07:23:23.388Z,22.60
2018-07-30T07:25:51.600Z,22.80
2018-07-30T07:28:19.783Z,23.00
2018-07-30T07:30:47.979Z,23.20
2018-07-30T07:33:16.179Z,23.40
2018-07-30T07:35:44.380Z,23.50
2018-07-30T07:38:12.631Z,23.60
2018-07-30T07:40:40.791Z,23.70
2018-07-30T07:43:09.015Z,23.80
2018-07-30T07:45:37.271Z,23.90
2018-07-30T07:48:05.491Z,24.00
2018-07-30T07:50:33.781Z,24.20
2018-07-30T07:53:01.920Z,24.40
2018-07-30T07:55:30.127Z,24.60
2018-07-30T07:57:58.327Z,24.80
2018-07-30T08:00:26.516Z,24.90
2018-07-30T08:02:54.836Z,25.10
2018-07-30T08:05:23.057Z,25.20
2018-07-30T08:07:51.259Z,25.30
2018-07-30T08:10:19.451Z,25.40
2018-07-30T08:12:47.720Z,25.50
2018-07-30T08:15:16.144Z,25.60
2018-07-30T08:17:44.349Z,25.80
2018-07-30T08:20:12.588Z,25.90
2018-07-30T08:22:40.784Z,25.90
2018-07-30T08:25:11.280Z,26.00
2018-07-30T08:27:39.447Z,26.10
2018-07-30T08:30:08.228Z,26.20
2018-07-30T08:32:36.872Z,26.30
2018-07-30T08:35:05.547Z,26.50
2018-07-30T08:37:34.106Z,26.60
2018-07-30T08:40:02.440Z,26.70
2018-07-30T08:42:30.656Z,26.80
2018-07-30T08:44:58.842Z,26.90
2018-07-30T08:47:27.060Z,27.00
2018-07-30T08:49:55.238Z,27.10
2018-07-30T08:52:23.447Z,27.10
2018-07-30T08:54:51.688Z,27.20
2018-07-30T08:57:19.996Z,27.30
2018-07-30T08:59:48.182Z,27.50
2018-07-30T09:02:16.374Z,27.60
2018-07-30T09:04:44.552Z,27.60
2018-07-30T09:07:12.821Z,27.70
2018-07-30T09:09:40.983Z,27.70
2018-07-30T09:12:09.151Z,27.80
2018-07-30T09:14:37.351Z,27.90
2018-07-30T09:17:06.471Z,28.00
2018-07-30T09:19:35.085Z,28.10
2018-07-30T09:22:03.259Z,28.10
2018-07-30T09:26:59.472Z,28.20
2018-07-30T09:29:27.744Z,28.20
2018-07-30T09:31:55.911Z,28.20
2018-07-30T09:36:52.082Z,28.30
2018-07-30T09:39:20.978Z,28.40
2018-07-30T09:41:49.156Z,28.40
2018-07-30T09:44:17.347Z,28.50
2018-07-30T09:46:45.519Z,28.70
2018-07-30T09:49:13.703Z,28.80
2018-07-30T09:51:41.967Z,28.80
2018-07-30T09:54:10.219Z,28.80
2018-07-30T09:56:38.395Z,28.90
2018-07-30T09:59:07.091Z,28.90
2018-07-30T10:01:35.267Z,29.00
2018-07-30T10:04:03.471Z,29.00
2018-07-30T10:06:31.660Z,29.10
2018-07-30T10:08:59.875Z,29.10
2018-07-30T10:11:28.115Z,29.10
2018-07-30T10:16:24.243Z,29.20
2018-07-30T10:18:52.483Z,29.30
2018-07-30T10:23:48.632Z,29.50
2018-07-30T10:26:16.829Z,29.50
2018-07-30T10:28:45.052Z,29.60
2018-07-30T10:31:13.911Z,29.70
2018-07-30T10:36:10.051Z,29.70
2018-07-30T10:38:38.243Z,29.80
2018-07-30T10:41:06.567Z,29.90
2018-07-30T10:43:34.756Z,29.90
2018-07-30T10:46:03.009Z,30.00
2018-07-30T10:48:31.250Z,30.00
2018-07-30T10:50:59.531Z,30.00
2018-07-30T10:53:27.708Z,30.00
2018-07-30T10:55:55.925Z,30.00
2018-07-30T10:58:24.119Z,30.10
2018-07-30T11:00:52.387Z,30.20
2018-07-30T11:03:20.647Z,30.20
2018-07-30T11:05:48.887Z,30.30
2018-07-30T11:08:17.119Z,30.30
2018-07-30T11:10:45.605Z,30.40
2018-07-30T11:13:13.892Z,30.50
2018-07-30T11:15:42.090Z,30.50
2018-07-30T11:18:10.309Z,30.50
2018-07-30T11:20:38.491Z,30.50
2018-07-30T11:23:06.888Z,30.50
2018-07-30T11:25:35.108Z,30.50
2018-07-30T11:28:03.352Z,30.50
2018-07-30T11:30:31.510Z,30.60
2018-07-30T11:32:59.715Z,30.60
2018-07-30T11:35:27.916Z,30.70
2018-07-30T11:37:56.153Z,30.70
2018-07-30T11:40:24.353Z,30.70
2018-07-30T11:42:52.676Z,30.70
2018-07-30T11:45:20.803Z,30.70
2018-07-30T11:47:49.015Z,30.70
2018-07-30T11:50:17.195Z,30.80
2018-07-30T11:52:45.396Z,30.80
2018-07-30T11:55:13.607Z,30.90
2018-07-30T11:57:41.800Z,30.90
2018-07-30T12:00:10.148Z,31.00
2018-07-30T12:02:38.319Z,31.10
2018-07-30T12:05:06.524Z,31.10
2018-07-30T12:07:34.718Z,31.10
2018-07-30T12:10:02.909Z,31.20
2018-07-30T12:12:31.210Z,31.10
2018-07-30T12:14:59.372Z,31.20
2018-07-30T12:17:27.632Z,31.20
2018-07-30T12:19:55.816Z,31.20
2018-07-30T12:22:24.034Z,31.30
2018-07-30T12:27:20.292Z,31.30
2018-07-30T12:29:48.471Z,31.30
2018-07-30T12:32:16.652Z,31.30
2018-07-30T12:34:44.843Z,31.40
2018-07-30T12:37:13.076Z,31.40
2018-07-30T12:39:41.265Z,31.40
2018-07-30T12:42:09.452Z,31.40
2018-07-30T12:44:37.652Z,31.50
2018-07-30T12:47:05.876Z,31.50
2018-07-30T12:49:34.069Z,31.60
2018-07-30T12:52:02.271Z,31.70
2018-07-30T12:56:58.527Z,31.80
2018-07-30T12:59:27.223Z,31.90
2018-07-30T13:01:55.441Z,31.90
2018-07-30T13:04:23.627Z,32.00
2018-07-30T13:06:51.815Z,32.00
2018-07-30T13:11:48.013Z,32.20
2018-07-30T13:14:16.218Z,32.30
2018-07-30T13:16:44.399Z,32.40
2018-07-30T13:19:12.636Z,32.40
2018-07-30T13:21:40.820Z,32.50
2018-07-30T13:24:09.000Z,32.60
2018-07-30T13:26:37.315Z,32.60
2018-07-30T13:29:05.402Z,32.60
2018-07-30T13:31:33.608Z,32.80
2018-07-30T13:34:01.798Z,32.80
2018-07-30T13:36:30.011Z,32.80
2018-07-30T13:38:58.192Z,32.80
2018-07-30T13:41:26.403Z,32.90
2018-07-30T13:43:54.631Z,33.00
2018-07-30T13:46:22.894Z,33.00
2018-07-30T13:48:51.223Z,33.00
2018-07-30T13:51:19.427Z,33.00
2018-07-30T13:53:47.631Z,33.00
2018-07-30T13:56:15.835Z,33.20
2018-07-30T13:58:44.043Z,33.30
2018-07-30T14:01:12.266Z,33.40
2018-07-30T14:03:40.455Z,33.50
2018-07-30T14:06:08.683Z,33.50
2018-07-30T14:08:36.851Z,33.50
2018-07-30T14:11:05.055Z,33.50
2018-07-30T14:13:33.283Z,33.60
2018-07-30T14:16:01.514Z,33.70
2018-07-30T14:18:29.696Z,33.90
2018-07-30T14:20:57.911Z,34.10
2018-07-30T14:23:26.368Z,34.30
2018-07-30T14:25:54.582Z,34.60
2018-07-30T14:28:22.822Z,34.80
2018-07-30T14:30:50.962Z,34.90
2018-07-30T14:33:19.189Z,35.10
2018-07-30T14:35:47.411Z,35.20
2018-07-30T14:38:15.629Z,35.40
2018-07-30T14:40:43.866Z,35.70
2018-07-30T14:43:12.095Z,36.00
2018-07-30T14:45:40.285Z,36.20
2018-07-30T14:48:08.503Z,36.40
2018-07-30T14:50:37.944Z,36.60
2018-07-30T14:53:06.128Z,36.90
2018-07-30T14:55:34.325Z,37.20
2018-07-30T14:58:02.504Z,37.50
2018-07-30T15:00:30.694Z,37.70
2018-07-30T15:02:58.879Z,37.90
2018-07-30T15:05:27.111Z,38.10
2018-07-30T15:07:55.289Z,38.30
2018-07-30T15:10:23.471Z,38.50
2018-07-30T15:15:19.619Z,38.80
2018-07-30T15:17:47.852Z,39.00
2018-07-30T15:20:16.043Z,39.20
2018-07-30T15:22:44.355Z,39.30
2018-07-30T15:25:12.576Z,39.30
2018-07-30T15:27:40.769Z,39.00
2018-07-30T15:30:09.016Z,38.60
2018-07-30T15:32:37.304Z,38.20
2018-07-30T15:35:05.576Z,37.90
2018-07-30T15:37:33.776Z,37.50
2018-07-30T15:40:01.992Z,37.20
2018-07-30T15:42:30.179Z,36.90
2018-07-30T15:44:58.384Z,36.70
2018-07-30T15:47:26.555Z,36.60
2018-07-30T15:49:54.775Z,36.40
2018-07-30T15:52:22.967Z,36.30
2018-07-30T15:54:51.259Z,36.30
2018-07-30T15:59:47.307Z,36.00
2018-07-30T16:02:15.495Z,36.00
2018-07-30T16:07:11.993Z,36.30
2018-07-30T16:09:40.187Z,36.70
2018-07-30T16:12:08.449Z,37.10
2018-07-30T16:14:36.757Z,37.40
2018-07-30T16:17:04.979Z,37.80
2018-07-30T16:19:33.171Z,38.00
2018-07-30T16:22:01.396Z,38.00
2018-07-30T16:24:29.584Z,38.20
2018-07-30T16:26:57.763Z,38.40
2018-07-30T16:29:25.998Z,38.50
2018-07-30T16:31:54.203Z,38.70
2018-07-30T16:34:22.404Z,38.80
2018-07-30T16:36:50.599Z,38.70
2018-07-30T16:39:18.799Z,38.40
2018-07-30T16:44:14.956Z,37.40
2018-07-30T16:46:43.350Z,36.80
2018-07-30T16:49:11.499Z,36.20
2018-07-30T16:51:39.712Z,35.70
2018-07-30T16:54:07.904Z,35.30
2018-07-30T16:56:36.093Z,35.10
2018-07-30T16:59:04.316Z,34.90
2018-07-30T17:01:33.083Z,34.70
2018-07-30T17:06:29.221Z,34.60
2018-07-30T17:08:57.416Z,34.60
2018-07-30T17:11:25.672Z,34.60
2018-07-30T17:13:53.875Z,34.70
2018-07-30T17:16:22.077Z,34.80
2018-07-30T17:18:50.247Z,34.80
2018-07-30T17:21:18.443Z,34.70
2018-07-30T17:23:46.644Z,34.60
2018-07-30T17:26:14.839Z,34.60
2018-07-30T17:28:43.012Z,34.50
2018-07-30T17:31:11.267Z,34.40
2018-07-30T17:33:39.451Z,34.30
2018-07-30T17:36:07.676Z,34.20
2018-07-30T17:38:35.879Z,34.20
2018-07-30T17:41:04.067Z,34.00
2018-07-30T17:46:01.220Z,33.80
2018-07-30T17:48:29.408Z,33.80
2018-07-30T17:50:57.603Z,33.60
2018-07-30T17:53:26.695Z,33.40
2018-07-30T17:55:55.387Z,33.10
2018-07-30T17:58:23.586Z,32.80
2018-07-30T18:00:51.861Z,32.70
2018-07-30T18:03:20.107Z,32.50
2018-07-30T18:08:16.251Z,32.00
2018-07-30T18:10:44.585Z,31.80
2018-07-30T18:13:12.767Z,31.60
2018-07-30T18:15:40.967Z,31.40
2018-07-30T18:18:09.147Z,31.30
2018-07-30T18:20:37.335Z,31.10
2018-07-30T18:23:05.551Z,31.00
2018-07-30T18:25:33.723Z,30.80
2018-07-30T18:28:01.959Z,30.70
2018-07-30T18:30:30.124Z,30.50
2018-07-30T18:32:58.300Z,30.40
2018-07-30T18:35:26.510Z,30.30
2018-07-30T18:37:54.687Z,30.20
2018-07-30T18:40:22.884Z,30.20
2018-07-30T18:42:51.060Z,30.10
2018-07-30T18:45:19.280Z,30.00
2018-07-30T18:47:47.474Z,29.90
2018-07-30T18:50:15.674Z,29.80
2018-07-30T18:52:43.876Z,29.70
2018-07-30T18:55:12.126Z,29.60
2018-07-30T18:57:40.580Z,29.50
2018-07-30T19:00:08.759Z,29.30
2018-07-30T19:02:36.947Z,29.10
2018-07-30T19:05:05.641Z,28.90
2018-07-30T19:07:33.831Z,28.60
2018-07-30T19:10:03.178Z,28.30
2018-07-30T19:12:31.501Z,28.00
2018-07-30T19:14:59.656Z,27.70
2018-07-30T19:17:27.856Z,27.40
2018-07-30T19:22:24.042Z,26.80
2018-07-30T19:24:52.219Z,26.60
2018-07-30T19:27:20.428Z,26.30
2018-07-30T19:29:49.012Z,26.00
2018-07-30T19:32:17.289Z,25.80
2018-07-30T19:34:45.503Z,25.60
2018-07-30T19:37:14.719Z,25.40
2018-07-30T19:39:42.926Z,25.20
2018-07-30T19:42:11.110Z,25.00
2018-07-30T19:44:39.376Z,25.00
2018-07-30T19:47:07.535Z,24.90
2018-07-30T19:49:35.843Z,24.90
2018-07-30T19:52:04.017Z,24.90
2018-07-30T19:54:32.264Z,24.90
2018-07-30T19:57:00.488Z,24.90
2018-07-30T19:59:28.716Z,24.80
2018-07-30T20:01:56.927Z,24.70
2018-07-30T20:04:25.145Z,24.60
2018-07-30T20:06:53.574Z,24.40
2018-07-30T20:09:21.702Z,24.20
2018-07-30T20:11:50.003Z,24.00
2018-07-30T20:14:18.204Z,23.80
2018-07-30T20:16:46.395Z,23.70
2018-07-30T20:19:14.608Z,23.50
2018-07-30T20:21:42.806Z,23.40
2018-07-30T20:24:11.087Z,23.20
2018-07-30T20:26:39.296Z,23.10
2018-07-30T20:29:07.475Z,23.00
2018-07-30T20:31:35.681Z,22.80
2018-07-30T20:34:04.462Z,22.70
2018-07-30T20:36:32.667Z,22.60
2018-07-30T20:39:00.875Z,22.50
2018-07-30T20:41:29.080Z,22.40
2018-07-30T20:43:57.438Z,22.30
2018-07-30T20:46:25.623Z,22.20
2018-07-30T20:48:53.827Z,22.10
2018-07-30T20:51:22.071Z,22.00
2018-07-30T20:53:50.244Z,21.90
2018-07-30T20:56:18.452Z,21.90
2018-07-30T20:58:46.644Z,21.80
2018-07-30T21:01:14.859Z,21.70
2018-07-30T21:03:43.059Z,21.70
2018-07-30T21:06:11.252Z,21.60
2018-07-30T21:08:39.483Z,21.40
2018-07-30T21:11:07.668Z,21.30
2018-07-30T21:13:35.883Z,21.30
2018-07-30T21:18:32.087Z,21.10
2018-07-30T21:21:00.435Z,21.10
2018-07-30T21:23:28.670Z,21.10
2018-07-30T21:25:56.909Z,21.00
2018-07-30T21:28:25.093Z,21.00
2018-07-30T21:30:53.287Z,21.00
2018-07-30T21:35:49.443Z,20.80
2018-07-30T21:38:17.622Z,20.80
2018-07-30T21:40:45.847Z,20.70
2018-07-30T21:43:14.207Z,20.60
2018-07-30T21:45:42.431Z,20.60
2018-07-30T21:48:10.616Z,20.50
2018-07-30T21:50:38.808Z,20.40
2018-07-30T21:53:07.659Z,20.40
2018-07-30T21:55:35.895Z,20.30
2018-07-30T21:58:04.107Z,20.30
2018-07-30T22:00:32.320Z,20.20
2018-07-30T22:03:00.662Z,20.20
2018-07-30T22:05:28.883Z,20.10
2018-07-30T22:07:57.075Z,20.10
2018-07-30T22:10:25.679Z,20.00
2018-07-30T22:12:54.695Z,19.90
2018-07-30T22:15:23.489Z,19.80
2018-07-30T22:17:51.735Z,19.80
2018-07-30T22:20:19.934Z,19.80
2018-07-30T22:22:48.108Z,19.80
2018-07-30T22:25:16.280Z,19.70
2018-07-30T22:27:44.471Z,19.70
2018-07-30T22:30:13.427Z,19.70
2018-07-30T22:32:41.684Z,19.60
2018-07-30T22:35:10.124Z,19.60
2018-07-30T22:37:38.319Z,19.50
2018-07-30T22:40:07.418Z,19.50
2018-07-30T22:42:35.635Z,19.40
2018-07-30T22:45:03.851Z,19.40
2018-07-30T22:47:32.047Z,19.30
2018-07-30T22:50:00.267Z,19.30
2018-07-30T22:52:28.456Z,19.30
2018-07-30T22:54:56.648Z,19.30
2018-07-30T22:57:24.857Z,19.30
2018-07-30T22:59:53.051Z,19.30
2018-07-30T23:02:21.234Z,19.30
2018-07-30T23:04:49.431Z,19.40
2018-07-30T23:07:17.729Z,19.30
2018-07-30T23:09:45.935Z,19.40
2018-07-30T23:12:14.162Z,19.40
2018-07-30T23:14:42.335Z,19.30
2018-07-30T23:17:10.547Z,19.30
2018-07-30T23:19:38.727Z,19.30
2018-07-30T23:22:06.921Z,19.30
2018-07-30T23:24:35.211Z,19.30
2018-07-30T23:27:03.411Z,19.20
2018-07-30T23:29:31.599Z,19.20
2018-07-30T23:31:59.936Z,19.10
2018-07-30T23:34:28.727Z,19.10
2018-07-30T23:36:56.970Z,19.00
2018-07-30T23:39:25.119Z,19.00
2018-07-30T23:41:53.299Z,19.00
2018-07-30T23:44:21.495Z,18.90
2018-07-30T23:46:49.662Z,18.90
2018-07-30T23:49:17.871Z,18.90
2018-07-30T23:51:46.067Z,18.90
2018-07-30T23:54:14.267Z,18.80
2018-07-30T23:56:42.455Z,18.80
2018-07-30T23:59:10.636Z,18.80
